Relevés horaires Semmerzake (Belgique)


Relevés horaires à Semmerzake - Jeudi 27 Août 2026
Heure UTC1 Température [°C] Vent [km/h] Hum. [%] Pres.4 [hPa] Visi. [Km] Nébu. [octa] Préc.5 [mm] Cond.
2m. Res. Ros. Dir.2 Vit. Moy. Raf.3
23:00 18.1 18.1 17.1 S 3.7 -- 5.6 94 1008.5(-2.0/3h) >70 -- -- --
22:00 18.7 18.7 17.5 NNO 1.9 -- 7.4 93 1008.3(0.0/3h) 45 -- -- NA
21:00 18.3 18.3 17.0 NE 3.7 -- 16.7 92 1008.3(0.4/3h) >70 -- -- NA
20:00 19.1 19.1 17.1 NO 5.6 -- 16.7 88 1010.5(2.3/3h) >70 -- -- NA
19:00 23.3 23.3 16.7 SSE 9.3 -- 14.8 66 1008.3(-0.1/3h) >70 -- -- Il y a une bruine faible et continue à la station au moment de l'observation
18:00 26.1 26.1 15.0 S 3.7 -- 14.8 50 1007.7(-1.3/3h) >70 -- 0.1/12h
--
17:00 28.0 28.0 15.0 SSO 5.6 -- 11.1 45 1008(-1.0/3h) 70 -- -- --
16:00 28.1 28.1 15.4 SSO 5.6 -- 14.8 46 1008.5(-0.3/3h) >70 -- -- --
15:00 28.3 28.3 15.0 SSO 7.4 9.3 14.8 44 1009(0.3/3h) >70 -- -- --
14:00 28.8 28.8 15.3 SSO 7.4 -- 13.0 44 1009(0.2/3h) >70 -- -- --
13:00 28.2 28.2 16.6 SSO 7.4 -- 14.8 49 1008.7(0.3/3h) >70 -- -- --
12:00 27.0 27.0 16.5 SO 5.6 -- 14.8 53 1008.7(0.1/3h) >70 -- 0.1/6h
NA
11:00 26.0 26.0 17.0 SO 9.3 -- 14.8 58 1008.7(0.0/3h) >70 -- -- --
10:00 24.6 24.6 16.5 S 9.3 -- 13.0 61 1008.6(0.0/3h) >70 -- -- --
09:00 22.2 22.2 17.7 ESE 3.7 -- 7.4 76 1008.6(-0.2/3h) 16 -- -- Ciel clair
08:00 18.6 18.6 16.4 NNO 1.9 -- 7.4 87 1008.7(-0.9/3h) 40 -- -- NA
07:00 18.2 18.2 16.3 NE 3.7 -- 7.4 89 1008.5(-1.5/3h) 35 -- -- Ciel clair
06:00 18.5 18.5 15.7 E 5.6 -- 11.1 84 1008.8(-1.2/3h) 15 -- -- --
05:00 18.2 18.2 15.6 E 3.7 -- 9.3 85 1009.7(-1.1/3h) 14 -- -- --
04:00 17.9 17.9 15.6 E 3.7 -- 7.4 86 1010.1(-1.0/3h) 14 -- -- --
03:00 18.2 18.2 15.4 ENE 3.7 5.6 11.1 84 1010.1(-1.1/3h) 16 -- -- --
02:00 18.8 18.8 15.7 ENE 3.7 -- 9.3 82 1010.8(-0.9/3h) >70 -- -- --
01:00 19.8 19.8 15.7 E 5.6 -- 11.1 77 1011.1(-1.4/3h) >70 -- -- --
00:00 20.7 20.7 16.0 E 5.6 -- 9.3 74 1011.2(-1.0/3h) >70 -- -- --

1 Coordinated Universal Time. Actuellement il est 08:00 locale et 06:00 UTC.

2 Le vent souffle depuis la direction indiquée vers la direction oposée.

3 Les rafales max. sont disponible 40 min après l'heure du relevé.

4 Pour les stations d'altitude (plus de 600m) le géopotentiel du niveau le plus proche de la pression obligatoire est indiqué.

5 Les stations disposant d'un diffuseur peuvent indiquer "trace". Cela signifie que des précipitations ont touchés le sol mais que la quantité est inférieure à 0.1 mm.

Récapitulatif de la journée
Température [°C] Vent [km/h] Ensoleillement4 [h] Precipitations totale5 [mm] Pression [Hpa]
Min1 Max.2 Moy.3 Max. Min Max.
17.7 29.1 7.5 16.7 0 h 0 min 0 1007.7 1011.2

1 Température minimale relevée entre 18:00 UTC la veille et 18:00 UTC le jour donné.

2 Température maximale relevée entre 06:00 UTC le jour donné et 06:00 UTC le lendemain.

3 Vent moyen de la journée basé sur les relevés horaires.

4 Ensoleillement en heures relevé entre 06:00 UTC la veille et 06:00 UTC le jour donné.

5 Précipitations totales tombées entre 06:00 UTC la jour donné et 06:00 UTC le lendemain.

Graphiques horaires